createdAt,value
2023-01-19T00:01:35.186Z,0.68
2023-01-19T00:04:05.357Z,0.70
2023-01-19T00:06:35.378Z,0.72
2023-01-19T00:09:07.859Z,0.63
2023-01-19T00:11:37.893Z,0.73
2023-01-19T00:14:07.962Z,0.74
2023-01-19T00:16:37.844Z,0.72
2023-01-19T00:19:07.627Z,0.66
2023-01-19T00:21:37.509Z,0.64
2023-01-19T00:24:10.473Z,0.65
2023-01-19T00:26:40.518Z,0.66
2023-01-19T00:29:10.524Z,0.80
2023-01-19T00:31:41.004Z,0.66
2023-01-19T00:34:11.216Z,0.67
2023-01-19T00:36:41.057Z,0.71
2023-01-19T00:39:13.487Z,0.66
2023-01-19T00:42:07.737Z,0.60
2023-01-19T00:44:37.590Z,0.66
2023-01-19T00:47:07.434Z,0.71
2023-01-19T00:49:37.292Z,0.66
2023-01-19T00:52:07.546Z,0.53
2023-01-19T00:54:40.008Z,0.56
2023-01-19T00:57:09.820Z,0.73
2023-01-19T00:59:39.636Z,0.66
2023-01-19T01:02:09.760Z,0.70
2023-01-19T01:04:39.722Z,0.69
2023-01-19T01:07:10.037Z,0.72
2023-01-19T01:09:42.453Z,0.74
2023-01-19T01:12:12.326Z,0.71
2023-01-19T01:14:42.159Z,0.66
2023-01-19T01:17:14.354Z,0.72
2023-01-19T01:19:44.463Z,0.83
2023-01-19T01:22:14.301Z,0.89
2023-01-19T01:24:47.167Z,0.78
2023-01-19T01:27:17.138Z,0.75
2023-01-19T01:29:47.173Z,0.84
2023-01-19T01:32:18.035Z,0.72
2023-01-19T01:34:47.890Z,0.66
2023-01-19T01:37:17.726Z,0.75
2023-01-19T01:39:50.161Z,0.79
2023-01-19T01:42:23.278Z,0.75
2023-01-19T01:44:55.795Z,0.75
2023-01-19T01:47:33.773Z,0.86
2023-01-19T01:50:11.540Z,0.87
2023-01-19T01:53:06.846Z,0.88
2023-01-19T01:55:46.067Z,0.87
2023-01-19T01:58:19.313Z,1.03
2023-01-19T02:01:02.019Z,0.98
2023-01-19T02:03:33.260Z,0.91
2023-01-19T02:06:08.744Z,1.12
2023-01-19T02:08:57.886Z,1.09
2023-01-19T02:11:44.032Z,1.17
2023-01-19T02:14:13.983Z,0.98
2023-01-19T02:16:43.889Z,1.05
2023-01-19T02:19:20.703Z,1.10
2023-01-19T02:21:58.171Z,0.97
2023-01-19T02:24:31.022Z,1.04
2023-01-19T02:27:02.711Z,1.15
2023-01-19T02:29:32.590Z,1.19
2023-01-19T02:32:03.199Z,1.15
2023-01-19T02:34:33.325Z,1.19
2023-01-19T02:37:08.909Z,1.03
2023-01-19T02:39:47.564Z,1.00
2023-01-19T02:42:25.161Z,1.14
2023-01-19T02:44:58.266Z,1.28
2023-01-19T02:47:28.487Z,1.16
2023-01-19T02:49:59.576Z,1.20
2023-01-19T02:52:30.823Z,1.15
2023-01-19T02:55:15.847Z,1.19
2023-01-19T02:58:01.318Z,1.20
2023-01-19T03:00:48.664Z,1.21
2023-01-19T03:03:30.998Z,1.12
2023-01-19T03:06:08.168Z,1.15
2023-01-19T03:08:49.866Z,1.18
2023-01-19T03:11:22.965Z,1.05
2023-01-19T03:13:57.048Z,1.17
2023-01-19T03:16:37.801Z,1.13
2023-01-19T03:19:14.891Z,0.97
2023-01-19T03:21:51.092Z,1.00
2023-01-19T03:24:24.006Z,1.00
2023-01-19T03:27:03.711Z,1.05
2023-01-19T03:29:37.710Z,0.98
2023-01-19T03:32:14.165Z,1.00
2023-01-19T03:34:49.047Z,0.98
2023-01-19T03:37:22.805Z,0.97
2023-01-19T03:39:53.121Z,0.96
2023-01-19T03:42:29.950Z,1.07
2023-01-19T03:45:04.264Z,0.96
2023-01-19T03:47:35.451Z,0.96
2023-01-19T03:50:12.106Z,1.03
2023-01-19T03:52:42.006Z,0.96
2023-01-19T03:55:13.784Z,1.00
2023-01-19T03:57:46.221Z,1.07
2023-01-19T04:00:17.846Z,1.03
2023-01-19T04:02:47.671Z,1.06
2023-01-19T04:05:17.610Z,1.00
2023-01-19T04:07:47.433Z,1.03
2023-01-19T04:10:17.268Z,1.06
2023-01-19T04:12:50.025Z,1.13
2023-01-19T04:15:20.411Z,1.16
2023-01-19T04:17:50.829Z,1.11
2023-01-19T04:20:21.805Z,1.13
2023-01-19T04:22:52.330Z,1.15
2023-01-19T04:25:22.286Z,1.05
2023-01-19T04:27:58.382Z,1.10
2023-01-19T04:30:28.428Z,1.21
2023-01-19T04:32:58.759Z,1.20
2023-01-19T04:35:28.810Z,1.13
2023-01-19T04:37:58.628Z,1.20
2023-01-19T04:40:28.544Z,1.14
2023-01-19T04:43:01.391Z,1.03
2023-01-19T04:45:31.697Z,1.09
2023-01-19T04:48:01.639Z,1.09
2023-01-19T04:50:31.535Z,1.30
2023-01-19T04:53:02.537Z,1.16
2023-01-19T04:55:32.548Z,1.23
2023-01-19T04:58:04.931Z,1.24
2023-01-19T05:00:34.814Z,1.04
2023-01-19T05:03:05.633Z,1.02
2023-01-19T05:05:35.867Z,0.92
2023-01-19T05:08:05.841Z,0.95
2023-01-19T05:10:36.565Z,1.02
2023-01-19T05:13:08.997Z,0.94
2023-01-19T05:15:38.819Z,0.95
2023-01-19T05:18:08.760Z,0.95
2023-01-19T05:20:39.632Z,0.95
2023-01-19T05:23:09.743Z,0.93
2023-01-19T05:25:39.647Z,0.85
2023-01-19T05:28:12.268Z,0.82
2023-01-19T05:30:42.113Z,0.83
2023-01-19T05:33:12.002Z,0.81
2023-01-19T05:35:41.923Z,0.90
2023-01-19T05:38:11.995Z,0.94
2023-01-19T05:40:41.869Z,0.91
2023-01-19T05:43:14.478Z,0.88
2023-01-19T05:45:45.607Z,0.92
2023-01-19T05:48:15.397Z,0.86
2023-01-19T05:50:45.213Z,0.78
2023-01-19T05:53:15.062Z,0.70
2023-01-19T05:55:45.022Z,0.74
2023-01-19T05:58:17.491Z,0.64
2023-01-19T06:00:47.413Z,0.56
2023-01-19T06:03:17.739Z,0.57
2023-01-19T06:05:47.773Z,0.59
2023-01-19T06:08:17.667Z,0.59
2023-01-19T06:10:47.461Z,0.84
2023-01-19T06:13:20.432Z,0.67
2023-01-19T06:15:50.281Z,0.59
2023-01-19T06:18:20.075Z,0.61
2023-01-19T06:20:49.873Z,0.59
2023-01-19T06:23:21.058Z,0.65
2023-01-19T06:25:52.011Z,0.70
2023-01-19T06:28:25.256Z,0.72
2023-01-19T06:30:57.450Z,0.79
2023-01-19T06:33:30.355Z,0.90
2023-01-19T06:36:00.193Z,0.87
2023-01-19T06:38:30.964Z,0.98
2023-01-19T06:41:03.183Z,0.92
2023-01-19T06:43:35.657Z,1.00
2023-01-19T06:46:05.542Z,1.04
2023-01-19T06:48:35.356Z,1.05
2023-01-19T06:51:06.078Z,0.94
2023-01-19T06:53:35.969Z,0.94
2023-01-19T06:56:07.256Z,0.95
2023-01-19T06:58:40.381Z,0.99
2023-01-19T07:01:11.225Z,1.04
2023-01-19T07:03:41.140Z,1.14
2023-01-19T07:06:11.093Z,1.11
2023-01-19T07:08:42.675Z,1.20
2023-01-19T07:11:26.477Z,1.19
2023-01-19T07:14:04.101Z,1.09
2023-01-19T07:16:34.649Z,1.16
2023-01-19T07:19:04.597Z,1.10
2023-01-19T07:21:34.552Z,1.14
2023-01-19T07:24:04.440Z,1.11
2023-01-19T07:26:34.309Z,1.21
2023-01-19T07:29:06.715Z,1.29
2023-01-19T07:31:36.712Z,1.12
2023-01-19T07:34:06.977Z,1.20
2023-01-19T07:36:37.067Z,1.13
2023-01-19T07:39:06.932Z,1.20
2023-01-19T07:41:36.831Z,1.24
2023-01-19T07:44:12.704Z,1.27
2023-01-19T07:46:43.414Z,1.25
2023-01-19T07:49:13.472Z,1.27
2023-01-19T07:51:43.759Z,1.27
2023-01-19T07:54:13.588Z,1.25
2023-01-19T07:56:43.382Z,1.29
2023-01-19T07:59:15.847Z,1.30
2023-01-19T08:01:45.785Z,1.39
2023-01-19T08:04:16.036Z,1.34
2023-01-19T08:06:49.233Z,1.55
2023-01-19T08:09:19.260Z,1.50
2023-01-19T08:11:49.400Z,1.53
2023-01-19T08:14:21.909Z,1.59
2023-01-19T08:16:51.828Z,1.60
2023-01-19T08:19:22.068Z,1.64
2023-01-19T08:21:51.903Z,1.81
2023-01-19T08:24:25.821Z,1.60
2023-01-19T08:27:01.965Z,1.63
2023-01-19T08:29:34.577Z,1.60
2023-01-19T08:32:04.875Z,1.60
2023-01-19T08:34:35.510Z,1.65
2023-01-19T08:37:05.434Z,1.61
2023-01-19T08:39:35.275Z,1.65
2023-01-19T08:42:05.696Z,1.79
2023-01-19T08:44:43.877Z,1.89
2023-01-19T08:47:20.051Z,1.77
2023-01-19T08:49:49.941Z,1.76
2023-01-19T08:52:19.817Z,1.91
2023-01-19T08:54:49.628Z,1.94
2023-01-19T08:57:19.466Z,1.74
2023-01-19T08:59:51.894Z,1.87
2023-01-19T09:02:21.856Z,2.05
2023-01-19T09:04:51.791Z,1.90
2023-01-19T09:07:21.946Z,2.04
2023-01-19T09:09:51.952Z,1.92
2023-01-19T09:12:21.837Z,2.14
2023-01-19T09:14:54.328Z,2.05
2023-01-19T09:17:24.255Z,2.34
2023-01-19T09:19:54.247Z,2.12
2023-01-19T09:22:24.217Z,2.22
2023-01-19T09:24:54.334Z,2.08
2023-01-19T09:27:24.325Z,2.15
2023-01-19T09:29:56.722Z,2.18
2023-01-19T09:32:26.530Z,2.40
2023-01-19T09:34:56.899Z,2.26
2023-01-19T09:37:26.833Z,2.43
2023-01-19T09:39:56.727Z,2.52
2023-01-19T09:42:36.090Z,2.75
2023-01-19T09:45:18.977Z,2.66
2023-01-19T09:47:51.973Z,2.68
2023-01-19T09:50:29.679Z,2.34
2023-01-19T09:53:08.176Z,2.38
2023-01-19T09:55:41.193Z,2.38
2023-01-19T09:58:18.437Z,2.38
2023-01-19T10:00:58.978Z,2.17
2023-01-19T10:03:29.046Z,2.22
2023-01-19T10:06:05.496Z,2.29
2023-01-19T10:08:46.676Z,2.19
2023-01-19T10:11:41.900Z,2.39
2023-01-19T10:14:25.937Z,2.16
2023-01-19T10:17:12.095Z,1.97
2023-01-19T10:19:48.565Z,1.92
2023-01-19T10:22:24.364Z,1.99
2023-01-19T10:24:59.391Z,1.86
2023-01-19T10:27:34.254Z,1.84
2023-01-19T10:30:05.246Z,1.81
2023-01-19T10:32:39.602Z,1.67
2023-01-19T10:35:23.426Z,1.73
2023-01-19T10:37:56.161Z,1.62
2023-01-19T10:40:36.537Z,1.53
2023-01-19T10:43:37.666Z,1.76
2023-01-19T10:46:20.662Z,1.88
2023-01-19T10:48:56.134Z,1.95
2023-01-19T10:51:26.451Z,2.04
2023-01-19T10:54:03.495Z,1.94
2023-01-19T10:56:37.684Z,2.03
2023-01-19T10:59:09.604Z,2.06
2023-01-19T11:01:39.766Z,1.91
2023-01-19T11:04:31.522Z,1.96
2023-01-19T11:07:17.336Z,1.94
2023-01-19T11:09:47.424Z,2.00
2023-01-19T11:12:24.560Z,2.06
2023-01-19T11:14:54.617Z,2.11
2023-01-19T11:17:28.323Z,2.15
2023-01-19T11:20:05.207Z,2.07
2023-01-19T11:22:36.488Z,2.02
2023-01-19T11:25:08.735Z,2.13
2023-01-19T11:27:40.197Z,2.08
2023-01-19T11:30:22.051Z,2.20
2023-01-19T11:32:51.949Z,2.14
2023-01-19T11:35:39.072Z,2.25
2023-01-19T11:38:27.703Z,2.16
2023-01-19T11:40:59.837Z,2.30
2023-01-19T11:43:48.280Z,2.28
2023-01-19T11:46:20.567Z,2.33
2023-01-19T11:49:01.836Z,2.53
2023-01-19T11:51:46.108Z,2.27
2023-01-19T11:54:27.242Z,2.42
2023-01-19T11:57:02.936Z,2.50
2023-01-19T11:59:32.975Z,2.48
2023-01-19T12:02:16.074Z,2.52
2023-01-19T12:04:48.122Z,2.40
2023-01-19T12:07:29.394Z,2.38
2023-01-19T12:10:28.315Z,2.39
2023-01-19T12:13:00.122Z,2.56
2023-01-19T12:15:39.208Z,2.46
2023-01-19T12:18:18.359Z,2.36
2023-01-19T12:20:53.252Z,2.48
2023-01-19T12:23:38.792Z,2.43
2023-01-19T12:26:30.062Z,2.40
2023-01-19T12:29:06.889Z,2.48
2023-01-19T12:31:36.958Z,2.34
2023-01-19T12:34:42.639Z,2.49
2023-01-19T12:37:41.013Z,2.60
2023-01-19T12:40:29.086Z,2.48
2023-01-19T12:43:03.885Z,2.48
2023-01-19T12:45:36.567Z,2.46
2023-01-19T12:48:11.692Z,2.52
2023-01-19T12:50:42.107Z,2.46
2023-01-19T12:53:23.914Z,2.51
2023-01-19T12:56:11.472Z,2.52
2023-01-19T12:58:41.434Z,2.55
2023-01-19T13:01:21.955Z,2.45
2023-01-19T13:04:07.003Z,2.46
2023-01-19T13:07:10.417Z,2.51
2023-01-19T13:09:43.208Z,2.56
2023-01-19T13:12:23.873Z,2.48
2023-01-19T13:15:14.281Z,2.56
2023-01-19T13:17:53.469Z,2.69
2023-01-19T13:20:30.662Z,2.63
2023-01-19T13:23:25.834Z,2.64
2023-01-19T13:26:16.366Z,2.50
2023-01-19T13:28:55.101Z,2.54
2023-01-19T13:31:27.721Z,2.46
2023-01-19T13:34:00.940Z,2.71
2023-01-19T13:36:34.461Z,2.69
2023-01-19T13:39:08.708Z,2.59
2023-01-19T13:41:42.584Z,2.59
2023-01-19T13:44:21.905Z,2.74
2023-01-19T13:46:53.553Z,2.82
2023-01-19T13:49:31.993Z,2.94
2023-01-19T13:52:13.109Z,2.97
2023-01-19T13:54:51.714Z,3.05
2023-01-19T13:57:30.624Z,2.87
2023-01-19T14:00:08.373Z,2.83
2023-01-19T14:02:42.516Z,3.09
2023-01-19T14:05:16.595Z,3.12
2023-01-19T14:07:46.675Z,3.48
2023-01-19T14:10:20.097Z,3.93
2023-01-19T14:13:01.273Z,4.27
2023-01-19T14:15:38.608Z,4.25
2023-01-19T14:18:27.431Z,3.78
2023-01-19T14:21:01.037Z,3.73
2023-01-19T14:23:47.778Z,3.89
2023-01-19T14:26:46.800Z,3.49
2023-01-19T14:29:29.096Z,3.62
2023-01-19T14:32:28.540Z,3.60
2023-01-19T14:35:17.500Z,3.72
2023-01-19T14:37:53.729Z,3.51
2023-01-19T14:40:27.035Z,3.45
2023-01-19T14:43:00.607Z,3.41
2023-01-19T14:45:36.697Z,3.42
2023-01-19T14:48:20.539Z,3.74
2023-01-19T14:51:02.703Z,3.54
2023-01-19T14:53:39.968Z,3.64
2023-01-19T14:56:10.105Z,3.96
2023-01-19T14:58:40.026Z,4.29
2023-01-19T15:01:09.969Z,4.51
2023-01-19T15:03:45.482Z,4.22
2023-01-19T15:06:19.628Z,3.91
2023-01-19T15:08:51.185Z,3.70
2023-01-19T15:11:26.498Z,3.67
2023-01-19T15:13:57.054Z,3.96
2023-01-19T15:16:30.367Z,3.75
2023-01-19T15:19:03.940Z,3.51
2023-01-19T15:21:33.869Z,3.45
2023-01-19T15:24:03.870Z,3.31
2023-01-19T15:26:33.791Z,3.28
2023-01-19T15:29:03.792Z,3.08
2023-01-19T15:31:33.780Z,2.97
2023-01-19T15:34:06.265Z,3.14
2023-01-19T15:36:36.195Z,3.09
2023-01-19T15:39:06.217Z,3.04
2023-01-19T15:41:36.521Z,2.92
2023-01-19T15:44:07.275Z,2.87
2023-01-19T15:46:37.359Z,2.82
2023-01-19T15:49:09.866Z,2.74
2023-01-19T15:51:39.772Z,2.61
2023-01-19T15:54:16.700Z,2.38
2023-01-19T15:56:46.760Z,2.44
2023-01-19T15:59:16.763Z,2.36
2023-01-19T16:01:46.904Z,2.29
2023-01-19T16:04:19.542Z,2.24
2023-01-19T16:06:50.101Z,2.18
2023-01-19T16:09:20.280Z,2.06
2023-01-19T16:11:50.400Z,2.02
2023-01-19T16:14:20.331Z,2.03
2023-01-19T16:16:50.365Z,1.96
2023-01-19T16:19:23.007Z,1.88
2023-01-19T16:21:52.958Z,1.85
2023-01-19T16:24:22.892Z,1.79
2023-01-19T16:26:52.903Z,1.74
2023-01-19T16:29:23.047Z,1.69
2023-01-19T16:31:53.187Z,1.76
2023-01-19T16:34:26.261Z,1.79
2023-01-19T16:36:56.209Z,1.94
2023-01-19T16:39:26.177Z,1.82
2023-01-19T16:41:56.122Z,1.76
2023-01-19T16:44:26.146Z,1.76
2023-01-19T16:46:56.197Z,1.68
2023-01-19T16:49:30.418Z,1.75
2023-01-19T16:52:00.382Z,1.72
2023-01-19T16:54:32.215Z,1.66
2023-01-19T16:57:02.444Z,1.65
2023-01-19T16:59:32.512Z,1.70
2023-01-19T17:02:02.709Z,1.64
2023-01-19T17:04:35.661Z,1.61
2023-01-19T17:07:05.632Z,1.57
2023-01-19T17:09:35.655Z,1.62
2023-01-19T17:12:07.494Z,1.41
2023-01-19T17:14:38.379Z,1.40
2023-01-19T17:17:09.484Z,1.57
2023-01-19T17:19:42.679Z,1.57
2023-01-19T17:22:13.040Z,1.39
2023-01-19T17:24:43.765Z,1.32
2023-01-19T17:27:13.813Z,1.30
2023-01-19T17:29:43.772Z,1.27
2023-01-19T17:32:13.732Z,1.45
2023-01-19T17:34:46.763Z,1.50
2023-01-19T17:37:16.685Z,1.31
2023-01-19T17:39:46.657Z,1.36
2023-01-19T17:42:16.618Z,1.33
2023-01-19T17:44:46.583Z,1.27
2023-01-19T17:47:16.518Z,1.25
2023-01-19T17:49:49.072Z,1.37
2023-01-19T17:52:19.096Z,1.35
2023-01-19T17:54:49.102Z,1.29
2023-01-19T17:57:19.208Z,1.38
2023-01-19T17:59:50.332Z,1.29
2023-01-19T18:02:24.412Z,1.34
2023-01-19T18:04:59.308Z,1.30
2023-01-19T18:07:29.533Z,1.29
2023-01-19T18:10:01.051Z,1.30
2023-01-19T18:12:31.445Z,1.35
2023-01-19T18:15:01.384Z,1.40
2023-01-19T18:17:33.246Z,1.38
2023-01-19T18:20:06.092Z,1.39
2023-01-19T18:22:36.031Z,1.45
2023-01-19T18:25:06.017Z,1.58
2023-01-19T18:27:35.842Z,1.57
2023-01-19T18:30:05.968Z,1.55
2023-01-19T18:32:37.203Z,1.55
2023-01-19T18:35:11.123Z,1.48
2023-01-19T18:37:41.076Z,1.49
2023-01-19T18:40:13.727Z,1.47
2023-01-19T18:42:43.930Z,1.65
2023-01-19T18:45:14.376Z,1.73
2023-01-19T18:47:44.278Z,1.72
2023-01-19T18:50:17.156Z,1.62
2023-01-19T18:52:51.259Z,1.57
2023-01-19T18:55:21.215Z,1.65
2023-01-19T18:57:51.120Z,1.71
2023-01-19T19:00:22.414Z,1.83
2023-01-19T19:02:53.344Z,1.72
2023-01-19T19:05:25.942Z,1.89
2023-01-19T19:07:55.836Z,1.90
2023-01-19T19:10:25.834Z,1.87
2023-01-19T19:12:55.800Z,1.91
2023-01-19T19:15:27.264Z,1.89
2023-01-19T19:17:57.677Z,1.99
2023-01-19T19:20:30.750Z,2.01
2023-01-19T19:23:00.629Z,1.99
2023-01-19T19:25:30.511Z,1.95
2023-01-19T19:28:00.410Z,1.88
2023-01-19T19:30:30.516Z,1.88
2023-01-19T19:33:01.199Z,1.93
2023-01-19T19:35:33.758Z,1.91
2023-01-19T19:38:03.673Z,1.89
2023-01-19T19:40:33.567Z,1.87
2023-01-19T19:43:04.117Z,1.91
2023-01-19T19:45:33.996Z,1.89
2023-01-19T19:48:03.937Z,1.81
2023-01-19T19:50:37.404Z,1.77
2023-01-19T19:53:07.289Z,1.69
2023-01-19T19:55:39.077Z,1.69
2023-01-19T19:58:09.026Z,1.62
2023-01-19T20:00:39.260Z,1.64
2023-01-19T20:03:13.487Z,1.72
2023-01-19T20:05:46.003Z,1.74
2023-01-19T20:08:16.192Z,1.77
2023-01-19T20:10:46.048Z,1.81
2023-01-19T20:13:19.338Z,1.72
2023-01-19T20:15:49.461Z,1.85
2023-01-19T20:18:19.326Z,1.80
2023-01-19T20:20:51.854Z,1.81
2023-01-19T20:23:21.750Z,1.83
2023-01-19T20:25:51.836Z,1.94
2023-01-19T20:28:21.898Z,2.02
2023-01-19T20:30:51.888Z,2.03
2023-01-19T20:33:21.969Z,2.00
2023-01-19T20:35:54.544Z,2.07
2023-01-19T20:38:24.528Z,2.10
2023-01-19T20:40:56.290Z,2.20
2023-01-19T20:43:26.365Z,2.23
2023-01-19T20:45:56.474Z,2.17
2023-01-19T20:48:26.524Z,2.15
2023-01-19T20:51:04.033Z,2.03
2023-01-19T20:53:34.387Z,1.96
2023-01-19T20:56:06.820Z,2.12
2023-01-19T20:58:37.264Z,2.25
2023-01-19T21:01:13.822Z,2.18
2023-01-19T21:03:44.238Z,2.31
2023-01-19T21:06:17.803Z,2.31
2023-01-19T21:08:49.729Z,2.29
2023-01-19T21:11:23.959Z,2.26
2023-01-19T21:13:56.296Z,2.30
2023-01-19T21:16:26.615Z,2.21
2023-01-19T21:18:57.203Z,2.18
2023-01-19T21:21:31.739Z,2.20
2023-01-19T21:24:03.805Z,2.24
2023-01-19T21:26:34.432Z,2.14
2023-01-19T21:29:05.530Z,2.26
2023-01-19T21:31:35.518Z,2.34
2023-01-19T21:34:05.495Z,2.38
2023-01-19T21:36:37.955Z,2.38
2023-01-19T21:39:09.204Z,2.28
2023-01-19T21:41:42.394Z,2.29
2023-01-19T21:44:14.619Z,2.29
2023-01-19T21:46:44.835Z,2.11
2023-01-19T21:49:20.731Z,2.08
2023-01-19T21:51:53.337Z,2.04
2023-01-19T21:54:23.219Z,2.02
2023-01-19T21:56:53.147Z,2.17
2023-01-19T21:59:22.995Z,2.15
2023-01-19T22:01:52.979Z,2.13
2023-01-19T22:04:23.260Z,2.14
2023-01-19T22:06:55.711Z,2.22
2023-01-19T22:09:25.729Z,2.09
2023-01-19T22:11:55.873Z,2.12
2023-01-19T22:14:25.812Z,2.10
2023-01-19T22:16:55.976Z,2.00
2023-01-19T22:19:26.060Z,1.91
2023-01-19T22:21:58.507Z,2.05
2023-01-19T22:24:28.460Z,2.09
2023-01-19T22:26:58.278Z,2.10
2023-01-19T22:29:43.219Z,2.06
2023-01-19T22:32:13.086Z,2.02
2023-01-19T22:34:42.950Z,2.02
2023-01-19T22:37:15.434Z,2.09
2023-01-19T22:39:46.120Z,2.03
2023-01-19T22:42:16.146Z,2.15
2023-01-19T22:44:46.926Z,2.14
2023-01-19T22:47:16.812Z,2.04
2023-01-19T22:49:46.637Z,1.89
2023-01-19T22:52:19.197Z,1.90
2023-01-19T22:54:49.068Z,1.94
2023-01-19T22:57:18.946Z,1.91
2023-01-19T22:59:48.846Z,1.88
2023-01-19T23:02:20.780Z,1.96
2023-01-19T23:04:51.050Z,1.99
2023-01-19T23:07:23.498Z,1.96
2023-01-19T23:09:53.328Z,1.97
2023-01-19T23:12:23.225Z,1.82
2023-01-19T23:14:53.130Z,1.66
2023-01-19T23:17:23.045Z,1.72
2023-01-19T23:19:52.907Z,1.73
2023-01-19T23:22:25.390Z,1.70
2023-01-19T23:24:55.206Z,1.75
2023-01-19T23:27:25.322Z,1.66
2023-01-19T23:29:55.830Z,1.63
2023-01-19T23:32:25.763Z,1.57
2023-01-19T23:34:56.222Z,1.54
2023-01-19T23:37:28.672Z,1.50
2023-01-19T23:39:58.501Z,1.52
2023-01-19T23:42:28.361Z,1.27
2023-01-19T23:44:58.205Z,1.25
2023-01-19T23:47:28.064Z,1.26
2023-01-19T23:49:57.927Z,1.35
2023-01-19T23:52:30.390Z,1.31
2023-01-19T23:55:00.747Z,1.29
2023-01-19T23:57:30.622Z,1.21
